Time,TemperatureF,DewpointF,PressureIn,WindDirection,WindDirectionDegrees,WindSpeedMPH,WindSpeedGustMPH,Humidity,HourlyPrecipIn,Conditions,Clouds,dailyrainin,SoftwareType,DateUTC
2013-06-02 00:03:00,67.0,-99.9,-100.00,WSW,237,6.0,11.0,87,0.00,,,0.07,,2013-06-02 04:03:00,
2013-06-02 00:13:00,67.0,63.0,-100.00,WSW,237,6.0,11.0,87,0.00,,,0.07,,2013-06-02 04:13:00,
2013-06-02 00:23:00,67.0,63.0,-100.00,SSW,203,3.0,7.0,88,0.00,,,0.07,,2013-06-02 04:23:00,
2013-06-02 00:33:00,66.0,63.0,-100.00,SW,220,5.0,9.0,91,0.00,,,0.07,,2013-06-02 04:33:00,
2013-06-02 00:42:00,66.0,63.0,-100.00,SW,220,5.0,9.0,91,0.00,,,0.07,,2013-06-02 04:42:00,
2013-06-02 00:53:00,68.0,62.0,-100.00,SW,236,9.0,16.0,82,0.00,,,0.07,,2013-06-02 04:53:00,
2013-06-02 01:03:00,68.0,62.0,-100.00,SW,236,9.0,14.0,80,0.00,,,0.07,,2013-06-02 05:03:00,
2013-06-02 01:12:00,68.0,62.0,-100.00,SW,236,9.0,14.0,80,0.00,,,0.07,,2013-06-02 05:12:00,
2013-06-02 01:22:00,66.0,63.0,-100.00,SW,230,4.0,7.0,90,0.00,,,0.07,,2013-06-02 05:22:00,
2013-06-02 01:32:00,65.0,63.0,-100.00,SW,223,4.0,8.0,92,0.00,,,0.07,,2013-06-02 05:32:00,
2013-06-02 01:42:00,65.0,63.0,-100.00,SW,223,4.0,8.0,92,0.00,,,0.07,,2013-06-02 05:42:00,
2013-06-02 01:52:00,66.0,63.0,-100.00,SW,224,5.0,10.0,91,0.00,,,0.07,,2013-06-02 05:52:00,
2013-06-02 02:01:00,68.0,62.0,-100.00,WSW,250,9.0,15.0,82,0.00,,,0.07,,2013-06-02 06:01:00,
2013-06-02 02:12:00,68.0,62.0,-100.00,WSW,250,9.0,15.0,82,0.00,,,0.07,,2013-06-02 06:12:00,
2013-06-02 02:21:00,68.0,62.0,-100.00,WSW,246,6.0,13.0,80,0.00,,,0.07,,2013-06-02 06:21:00,
2013-06-02 02:32:00,67.0,62.0,-100.00,WSW,241,5.0,8.0,82,0.00,,,0.07,,2013-06-02 06:32:00,
2013-06-02 02:42:00,67.0,62.0,-100.00,WSW,241,5.0,8.0,82,0.00,,,0.07,,2013-06-02 06:42:00,
2013-06-02 02:52:00,68.0,62.0,-100.00,SW,233,5.0,9.0,80,0.00,,,0.07,,2013-06-02 06:52:00,
2013-06-02 03:02:00,68.0,62.0,-100.00,SW,233,5.0,9.0,80,0.00,,,0.07,,2013-06-02 07:02:00,
2013-06-02 03:11:00,68.0,62.0,-100.00,SW,233,5.0,9.0,80,0.00,,,0.07,,2013-06-02 07:11:00,
2013-06-02 03:22:00,68.0,62.0,-100.00,SW,233,5.0,8.0,81,0.00,,,0.07,,2013-06-02 07:22:00,
2013-06-02 03:32:00,68.0,62.0,-100.00,SW,217,5.0,12.0,81,0.00,,,0.07,,2013-06-02 07:32:00,
2013-06-02 03:42:00,68.0,62.0,-100.00,SW,217,5.0,12.0,81,0.00,,,0.07,,2013-06-02 07:42:00,
2013-06-02 03:52:00,68.0,62.0,-100.00,SW,216,6.0,12.0,80,0.00,,,0.07,,2013-06-02 07:52:00,
2013-06-02 04:02:00,68.0,62.0,-100.00,SW,216,6.0,12.0,80,0.00,,,0.07,,2013-06-02 08:02:00,
2013-06-02 04:12:00,68.0,62.0,-100.00,WSW,248,8.0,11.0,80,0.00,,,0.07,,2013-06-02 08:12:00,
2013-06-02 04:22:00,67.0,62.0,-100.00,WSW,240,5.0,8.0,83,0.00,,,0.07,,2013-06-02 08:22:00,
2013-06-02 04:32:00,67.0,62.0,-100.00,WSW,253,8.0,13.0,82,0.00,,,0.07,,2013-06-02 08:32:00,
2013-06-02 04:42:00,67.0,62.0,-100.00,WSW,253,8.0,13.0,82,0.00,,,0.07,,2013-06-02 08:42:00,
2013-06-02 04:52:00,67.0,62.0,-100.00,SW,222,4.0,6.0,85,0.00,,,0.07,,2013-06-02 08:52:00,
2013-06-02 05:01:00,67.0,62.0,-100.00,WSW,254,8.0,11.0,81,0.00,,,0.07,,2013-06-02 09:01:00,
2013-06-02 05:11:00,67.0,62.0,-100.00,WSW,254,8.0,11.0,81,0.00,,,0.07,,2013-06-02 09:11:00,
2013-06-02 05:21:00,67.0,62.0,-100.00,SW,220,3.0,6.0,83,0.00,,,0.07,,2013-06-02 09:21:00,
2013-06-02 05:33:00,66.0,62.0,-100.00,WSW,241,4.0,6.0,87,0.00,,,0.07,,2013-06-02 09:33:00,
2013-06-02 05:43:00,66.0,62.0,-100.00,WSW,241,4.0,6.0,87,0.00,,,0.07,,2013-06-02 09:43:00,
2013-06-02 05:53:00,67.0,62.0,-100.00,WSW,247,4.0,7.0,83,0.00,,,0.07,,2013-06-02 09:53:00,
2013-06-02 06:02:00,66.0,62.0,-100.00,WSW,237,4.0,5.0,87,0.00,,,0.07,,2013-06-02 10:02:00,
2013-06-02 06:12:00,66.0,62.0,-100.00,WSW,237,4.0,5.0,87,0.00,,,0.07,,2013-06-02 10:12:00,
2013-06-02 06:23:00,65.0,63.0,-100.00,South,189,1.0,2.0,90,0.18,,,0.12,,2013-06-02 10:23:00,
2013-06-02 06:33:00,65.0,63.0,-100.00,South,189,1.0,2.0,90,0.18,,,0.12,,2013-06-02 10:33:00,
2013-06-02 06:42:00,64.0,63.0,-100.00,SSW,208,2.0,4.0,94,0.45,,,0.15,,2013-06-02 10:42:00,
2013-06-02 06:52:00,64.0,63.0,-100.00,WSW,258,7.0,8.0,96,0.37,,,0.22,,2013-06-02 10:52:00,
2013-06-02 07:02:00,65.0,63.0,-100.00,WSW,241,3.0,6.0,96,0.11,,,0.28,,2013-06-02 11:02:00,
2013-06-02 07:12:00,65.0,63.0,-100.00,WSW,241,3.0,6.0,96,0.11,,,0.28,,2013-06-02 11:12:00,
2013-06-02 07:22:00,65.0,63.0,-100.00,SW,232,3.0,4.0,96,0.06,,,0.30,,2013-06-02 11:22:00,
2013-06-02 07:32:00,65.0,64.0,-100.00,SW,224,3.0,5.0,97,0.09,,,0.34,,2013-06-02 11:32:00,
2013-06-02 07:42:00,65.0,64.0,-100.00,SW,224,3.0,5.0,97,0.09,,,0.34,,2013-06-02 11:42:00,
2013-06-02 07:52:00,64.0,63.0,-100.00,SW,227,2.0,4.0,97,0.00,,,0.37,,2013-06-02 11:52:00,
2013-06-02 08:02:00,65.0,64.0,-100.00,WSW,244,5.0,10.0,97,0.10,,,0.39,,2013-06-02 12:02:00,
2013-06-02 08:11:00,65.0,64.0,-100.00,WSW,244,5.0,10.0,97,0.10,,,0.39,,2013-06-02 12:11:00,
2013-06-02 08:22:00,64.0,64.0,-100.00,SSE,155,1.0,2.0,97,0.01,,,0.42,,2013-06-02 12:22:00,
2013-06-02 08:32:00,65.0,64.0,-100.00,South,185,0.0,1.0,97,0.00,,,0.42,,2013-06-02 12:32:00,
2013-06-02 08:42:00,65.0,64.0,-100.00,South,185,0.0,1.0,97,0.00,,,0.42,,2013-06-02 12:42:00,
2013-06-02 08:53:00,65.0,64.0,-100.00,South,182,0.0,1.0,97,0.00,,,0.42,,2013-06-02 12:53:00,
2013-06-02 09:01:00,65.0,64.0,-100.00,SW,215,2.0,3.0,97,0.17,,,0.44,,2013-06-02 13:01:00,
2013-06-02 09:12:00,65.0,64.0,-100.00,SW,215,2.0,3.0,97,0.17,,,0.44,,2013-06-02 13:12:00,
2013-06-02 09:22:00,65.0,64.0,-100.00,SSW,202,1.0,2.0,98,0.00,,,0.45,,2013-06-02 13:22:00,
2013-06-02 09:32:00,65.0,64.0,-100.00,South,186,1.0,2.0,98,0.31,,,0.49,,2013-06-02 13:32:00,
2013-06-02 09:42:00,65.0,64.0,-100.00,South,186,1.0,2.0,98,0.31,,,0.49,,2013-06-02 13:42:00,
2013-06-02 09:52:00,65.0,64.0,-100.00,WSW,246,4.0,7.0,98,0.00,,,0.50,,2013-06-02 13:52:00,
2013-06-02 10:02:00,65.0,65.0,-100.00,SSW,198,3.0,6.0,98,0.00,,,0.50,,2013-06-02 14:02:00,
2013-06-02 10:11:00,65.0,65.0,-100.00,SSW,198,3.0,6.0,98,0.00,,,0.50,,2013-06-02 14:11:00,
2013-06-02 10:22:00,65.0,65.0,-100.00,SW,216,3.0,6.0,98,0.07,,,0.52,,2013-06-02 14:22:00,
2013-06-02 10:32:00,65.0,64.0,-100.00,SSW,199,2.0,5.0,98,0.06,,,0.58,,2013-06-02 14:32:00,
2013-06-02 10:42:00,65.0,64.0,-100.00,SSW,199,2.0,5.0,98,0.06,,,0.58,,2013-06-02 14:42:00,
2013-06-02 10:52:00,65.0,65.0,-100.00,SSW,210,3.0,7.0,98,0.01,,,0.60,,2013-06-02 14:52:00,
2013-06-02 11:01:00,65.0,64.0,-100.00,WSW,243,5.0,9.0,98,0.17,,,0.64,,2013-06-02 15:01:00,
2013-06-02 11:11:00,65.0,64.0,-100.00,WSW,243,5.0,9.0,98,0.17,,,0.64,,2013-06-02 15:11:00,
2013-06-02 11:22:00,65.0,64.0,-100.00,SW,223,4.0,6.0,98,0.24,,,0.69,,2013-06-02 15:22:00,
2013-06-02 11:33:00,65.0,64.0,-100.00,SW,222,2.0,4.0,98,0.31,,,0.75,,2013-06-02 15:33:00,
2013-06-02 11:43:00,65.0,64.0,-100.00,SW,222,2.0,4.0,98,0.31,,,0.75,,2013-06-02 15:43:00,
2013-06-02 11:53:00,64.0,63.0,-100.00,SW,233,5.0,9.0,98,0.38,,,0.83,,2013-06-02 15:53:00,
2013-06-02 12:03:00,64.0,64.0,-100.00,WSW,241,6.0,9.0,98,0.16,,,0.91,,2013-06-02 16:03:00,
2013-06-02 12:13:00,64.0,64.0,-100.00,WSW,241,6.0,9.0,98,0.16,,,0.91,,2013-06-02 16:13:00,
2013-06-02 12:23:00,65.0,64.0,-100.00,SW,219,5.0,10.0,98,0.13,,,0.95,,2013-06-02 16:23:00,
2013-06-02 12:33:00,65.0,65.0,-100.00,South,182,1.0,3.0,98,0.03,,,0.96,,2013-06-02 16:33:00,
2013-06-02 12:42:00,65.0,65.0,-100.00,South,182,1.0,3.0,98,0.03,,,0.96,,2013-06-02 16:42:00,
2013-06-02 12:53:00,65.0,65.0,-100.00,South,176,0.0,1.0,98,0.07,,,1.00,,2013-06-02 16:53:00,
2013-06-02 13:02:00,65.0,64.0,-100.00,WSW,237,4.0,7.0,98,0.23,,,1.06,,2013-06-02 17:02:00,
2013-06-02 13:12:00,65.0,64.0,-100.00,WSW,237,4.0,7.0,98,0.23,,,1.06,,2013-06-02 17:12:00,
2013-06-02 13:23:00,65.0,65.0,-100.00,SW,215,3.0,6.0,98,0.13,,,1.09,,2013-06-02 17:23:00,
2013-06-02 13:32:00,64.0,64.0,-100.00,SW,217,6.0,15.0,98,0.18,,,1.14,,2013-06-02 17:32:00,
2013-06-02 13:42:00,64.0,64.0,-100.00,SW,217,6.0,15.0,98,0.18,,,1.14,,2013-06-02 17:42:00,
2013-06-02 13:52:00,63.0,63.0,-100.00,WSW,237,9.0,13.0,98,0.37,,,1.21,,2013-06-02 17:52:00,
2013-06-02 14:02:00,64.0,63.0,-100.00,WSW,248,7.0,9.0,98,0.35,,,1.30,,2013-06-02 18:02:00,
2013-06-02 14:11:00,64.0,63.0,-100.00,WSW,248,7.0,9.0,98,0.35,,,1.30,,2013-06-02 18:11:00,
2013-06-02 14:21:00,64.0,64.0,-100.00,West,270,2.0,3.0,98,0.03,,,1.35,,2013-06-02 18:21:00,
2013-06-02 14:32:00,65.0,65.0,-100.00,WSW,241,4.0,7.0,98,0.01,,,1.35,,2013-06-02 18:32:00,
2013-06-02 14:42:00,65.0,65.0,-100.00,WSW,241,4.0,7.0,98,0.01,,,1.35,,2013-06-02 18:42:00,
2013-06-02 14:52:00,65.0,65.0,-100.00,SW,230,5.0,9.0,97,0.00,,,1.35,,2013-06-02 18:52:00,
2013-06-02 15:01:00,65.0,64.0,-100.00,WSW,246,6.0,8.0,97,0.00,,,1.35,,2013-06-02 19:01:00,
2013-06-02 15:11:00,65.0,64.0,-100.00,WSW,246,6.0,8.0,97,0.00,,,1.35,,2013-06-02 19:11:00,
2013-06-02 15:22:00,65.0,64.0,-100.00,WSW,251,6.0,8.0,96,0.06,,,1.36,,2013-06-02 19:22:00,
2013-06-02 15:32:00,65.0,64.0,-100.00,WSW,246,6.0,9.0,95,0.00,,,1.36,,2013-06-02 19:32:00,
2013-06-02 15:42:00,65.0,64.0,-100.00,WSW,246,6.0,9.0,95,0.00,,,1.36,,2013-06-02 19:42:00,
2013-06-02 15:52:00,66.0,64.0,-100.00,SW,220,3.0,6.0,96,0.00,,,1.36,,2013-06-02 19:52:00,
2013-06-02 16:02:00,66.0,65.0,-100.00,WSW,239,3.0,7.0,95,0.00,,,1.36,,2013-06-02 20:02:00,
2013-06-02 16:11:00,66.0,65.0,-100.00,WSW,239,3.0,7.0,95,0.00,,,1.36,,2013-06-02 20:11:00,
2013-06-02 16:22:00,66.0,65.0,-100.00,WSW,239,5.0,7.0,96,0.00,,,1.36,,2013-06-02 20:22:00,
2013-06-02 16:32:00,67.0,65.0,-100.00,WSW,248,6.0,10.0,95,0.00,,,1.36,,2013-06-02 20:32:00,
2013-06-02 16:42:00,67.0,65.0,-100.00,WSW,248,6.0,10.0,95,0.00,,,1.36,,2013-06-02 20:42:00,
2013-06-02 16:52:00,67.0,65.0,-100.00,WSW,248,6.0,10.0,95,0.00,,,1.36,,2013-06-02 20:52:00,
2013-06-02 17:02:00,67.0,64.0,-100.00,WSW,244,6.0,9.0,92,0.00,,,1.36,,2013-06-02 21:02:00,
2013-06-02 17:12:00,67.0,64.0,-100.00,WSW,244,6.0,9.0,92,0.00,,,1.36,,2013-06-02 21:12:00,
2013-06-02 17:22:00,67.0,64.0,-100.00,WSW,248,6.0,7.0,92,0.00,,,1.36,,2013-06-02 21:22:00,
2013-06-02 17:33:00,68.0,65.0,-100.00,SW,224,2.0,5.0,90,0.00,,,1.36,,2013-06-02 21:33:00,
2013-06-02 17:42:00,68.0,65.0,-100.00,SW,224,2.0,5.0,90,0.00,,,1.36,,2013-06-02 21:42:00,
2013-06-02 17:53:00,67.0,64.0,-100.00,SW,227,2.0,3.0,90,0.00,,,1.36,,2013-06-02 21:53:00,
2013-06-02 18:03:00,68.0,65.0,-100.00,SSW,198,2.0,6.0,92,0.00,,,1.36,,2013-06-02 22:03:00,
2013-06-02 18:12:00,68.0,65.0,-100.00,SSW,198,2.0,6.0,92,0.00,,,1.36,,2013-06-02 22:12:00,
2013-06-02 18:23:00,67.0,64.0,-100.00,SW,227,3.0,6.0,91,0.00,,,1.36,,2013-06-02 22:23:00,
2013-06-02 18:33:00,67.0,64.0,-100.00,WSW,239,2.0,4.0,92,0.11,,,1.37,,2013-06-02 22:33:00,
2013-06-02 18:42:00,67.0,64.0,-100.00,WSW,239,2.0,4.0,92,0.11,,,1.37,,2013-06-02 22:42:00,
2013-06-02 18:53:00,66.0,64.0,-100.00,WSW,246,3.0,5.0,94,0.01,,,1.39,,2013-06-02 22:53:00,
2013-06-02 19:02:00,66.0,64.0,-100.00,WSW,244,3.0,4.0,94,0.04,,,1.39,,2013-06-02 23:02:00,
2013-06-02 19:12:00,66.0,64.0,-100.00,WSW,244,3.0,4.0,94,0.04,,,1.39,,2013-06-02 23:12:00,
2013-06-02 19:22:00,67.0,65.0,-100.00,SE,137,0.0,1.0,95,0.00,,,1.41,,2013-06-02 23:22:00,
2013-06-02 19:32:00,67.0,65.0,-100.00,SE,144,0.0,1.0,95,0.00,,,1.41,,2013-06-02 23:32:00,
2013-06-02 19:42:00,67.0,65.0,-100.00,SE,144,0.0,1.0,95,0.00,,,1.41,,2013-06-02 23:42:00,
2013-06-02 19:53:00,67.0,65.0,-100.00,SW,215,1.0,2.0,95,0.00,,,1.41,,2013-06-02 23:53:00,
2013-06-02 20:01:00,66.0,65.0,-100.00,SW,224,1.0,2.0,95,0.00,,,1.41,,2013-06-03 00:01:00,
2013-06-02 20:12:00,66.0,65.0,-100.00,SW,224,1.0,2.0,95,0.00,,,1.41,,2013-06-03 00:12:00,
2013-06-02 20:22:00,66.0,65.0,-100.00,SSW,209,0.0,0.0,96,0.00,,,1.41,,2013-06-03 00:22:00,
2013-06-02 20:32:00,66.0,65.0,-100.00,SW,219,0.0,0.0,96,0.00,,,1.41,,2013-06-03 00:32:00,
2013-06-02 20:42:00,66.0,65.0,-100.00,SW,219,0.0,0.0,96,0.00,,,1.41,,2013-06-03 00:42:00,
2013-06-02 20:52:00,66.0,65.0,-100.00,SSW,213,0.0,0.0,96,0.00,,,1.41,,2013-06-03 00:52:00,
2013-06-02 21:01:00,66.0,65.0,-100.00,WNW,288,1.0,2.0,96,0.00,,,1.41,,2013-06-03 01:01:00,
2013-06-02 21:11:00,66.0,65.0,-100.00,WNW,288,1.0,2.0,96,0.00,,,1.41,,2013-06-03 01:11:00,
2013-06-02 21:21:00,66.0,64.0,-100.00,NW,325,1.0,3.0,95,0.00,,,1.41,,2013-06-03 01:21:00,
2013-06-02 21:32:00,65.0,64.0,-100.00,NW,315,1.0,2.0,95,0.00,,,1.41,,2013-06-03 01:32:00,
2013-06-02 21:42:00,65.0,64.0,-100.00,NW,315,1.0,2.0,95,0.00,,,1.41,,2013-06-03 01:42:00,
2013-06-02 21:52:00,65.0,63.0,-100.00,NNW,339,1.0,2.0,95,0.00,,,1.41,,2013-06-03 01:52:00,
2013-06-02 22:02:00,65.0,63.0,-100.00,NNW,340,1.0,2.0,95,0.00,,,1.41,,2013-06-03 02:02:00,
2013-06-02 22:12:00,65.0,63.0,-100.00,NNW,340,1.0,2.0,95,0.00,,,1.41,,2013-06-03 02:12:00,
2013-06-02 22:22:00,65.0,63.0,-100.00,NNW,332,1.0,2.0,95,0.00,,,1.41,,2013-06-03 02:22:00,
2013-06-02 22:32:00,65.0,64.0,-100.00,NW,320,2.0,3.0,95,0.00,,,1.41,,2013-06-03 02:32:00,
2013-06-02 22:42:00,65.0,64.0,-100.00,NW,320,2.0,3.0,95,0.00,,,1.41,,2013-06-03 02:42:00,
2013-06-02 22:52:00,65.0,63.0,-100.00,NW,316,2.0,3.0,95,0.00,,,1.41,,2013-06-03 02:52:00,
2013-06-02 23:02:00,65.0,63.0,-100.00,NNW,333,2.0,2.0,94,0.00,,,1.41,,2013-06-03 03:02:00,
2013-06-02 23:12:00,65.0,63.0,-100.00,NNW,333,2.0,2.0,94,0.00,,,1.41,,2013-06-03 03:12:00,
2013-06-02 23:22:00,65.0,63.0,-100.00,North,352,1.0,1.0,94,0.00,,,1.41,,2013-06-03 03:22:00,
2013-06-02 23:33:00,65.0,63.0,-100.00,NNE,25,1.0,2.0,94,0.00,,,1.33,,2013-06-03 03:33:00,
2013-06-02 23:43:00,65.0,63.0,-100.00,NNE,25,1.0,2.0,94,0.00,,,1.33,,2013-06-03 03:43:00,
2013-06-02 23:53:00,65.0,63.0,-100.00,NW,313,2.0,3.0,95,0.00,,,1.33,,2013-06-03 03:53:00,